createdAt,value
2023-01-18T00:00:09.192Z,20.55
2023-01-18T00:03:16.299Z,26.30
2023-01-18T00:09:24.224Z,23.38
2023-01-18T00:12:28.402Z,27.88
2023-01-18T00:15:33.450Z,15.88
2023-01-18T00:18:37.715Z,19.17
2023-01-18T00:21:42.288Z,37.00
2023-01-18T00:24:46.532Z,42.08
2023-01-18T00:27:53.279Z,39.33
2023-01-18T00:30:58.023Z,37.40
2023-01-18T00:34:01.954Z,43.65
2023-01-18T00:37:06.018Z,50.63
2023-01-18T00:40:11.158Z,50.85
2023-01-18T00:43:34.659Z,56.95
2023-01-18T00:46:38.570Z,83.43
2023-01-18T00:49:42.575Z,88.73
2023-01-18T00:52:47.330Z,41.03
2023-01-18T00:58:55.286Z,30.17
2023-01-18T01:01:59.698Z,66.43
2023-01-18T01:05:22.446Z,60.15
2023-01-18T01:08:26.861Z,35.05
2023-01-18T01:11:31.070Z,51.33
2023-01-18T01:14:55.679Z,49.60
2023-01-18T01:18:17.744Z,61.17
2023-01-18T01:21:40.148Z,61.00
2023-01-18T01:25:02.282Z,66.95
2023-01-18T01:28:06.390Z,64.13
2023-01-18T01:31:12.825Z,52.10
2023-01-18T01:34:16.969Z,46.75
2023-01-18T01:37:20.957Z,29.65
2023-01-18T01:40:25.154Z,36.57
2023-01-18T01:43:47.115Z,29.63
2023-01-18T01:46:57.213Z,29.17
2023-01-18T01:50:08.667Z,23.27
2023-01-18T01:53:12.956Z,20.15
2023-01-18T01:56:18.444Z,13.65
2023-01-18T01:59:22.922Z,17.45
2023-01-18T02:02:27.377Z,24.02
2023-01-18T02:05:37.450Z,27.10
2023-01-18T02:08:41.711Z,26.75
2023-01-18T02:11:46.157Z,26.45
2023-01-18T02:14:50.167Z,15.80
2023-01-18T02:18:19.688Z,18.50
2023-01-18T02:21:36.281Z,21.30
2023-01-18T02:25:04.456Z,21.02
2023-01-18T02:28:18.060Z,26.08
2023-01-18T02:31:27.206Z,49.50
2023-01-18T02:34:42.595Z,23.77
2023-01-18T02:37:51.196Z,26.58
2023-01-18T02:41:10.172Z,24.95
2023-01-18T02:44:37.073Z,18.95
2023-01-18T02:47:42.230Z,19.50
2023-01-18T02:53:50.351Z,12.98
2023-01-18T02:56:56.245Z,16.42
2023-01-18T03:00:04.636Z,9.30
2023-01-18T03:03:11.767Z,13.05
2023-01-18T03:06:16.570Z,15.32
2023-01-18T03:09:23.196Z,12.32
2023-01-18T03:12:47.370Z,13.60
2023-01-18T03:16:05.189Z,12.38
2023-01-18T03:19:36.464Z,13.15
2023-01-18T03:23:08.586Z,26.85
2023-01-18T03:26:17.708Z,12.32
2023-01-18T03:29:41.719Z,13.98
2023-01-18T03:33:05.108Z,13.90
2023-01-18T03:36:14.415Z,10.93
2023-01-18T03:39:41.510Z,14.63
2023-01-18T03:43:03.053Z,52.47
2023-01-18T03:46:08.962Z,19.30
2023-01-18T03:49:14.135Z,12.45
2023-01-18T03:52:31.439Z,13.63
2023-01-18T03:55:44.151Z,15.10
2023-01-18T03:58:51.098Z,15.65
2023-01-18T04:01:55.179Z,13.82
2023-01-18T04:05:04.525Z,12.27
2023-01-18T04:08:08.679Z,13.82
2023-01-18T04:11:12.970Z,19.05
2023-01-18T04:14:21.717Z,16.50
2023-01-18T04:17:25.800Z,17.25
2023-01-18T04:20:29.883Z,13.32
2023-01-18T04:23:33.832Z,12.63
2023-01-18T04:26:38.639Z,22.15
2023-01-18T04:29:42.695Z,23.40
2023-01-18T04:32:47.043Z,13.50
2023-01-18T04:35:52.690Z,12.55
2023-01-18T04:38:57.054Z,16.58
2023-01-18T04:42:01.072Z,19.70
2023-01-18T04:45:05.748Z,20.25
2023-01-18T04:48:09.750Z,17.23
2023-01-18T04:51:16.519Z,15.73
2023-01-18T04:54:21.024Z,14.27
2023-01-18T04:57:25.145Z,12.55
2023-01-18T05:00:29.108Z,14.40
2023-01-18T05:03:38.807Z,13.93
2023-01-18T05:06:42.810Z,13.20
2023-01-18T05:09:47.311Z,13.75
2023-01-18T05:12:51.537Z,13.68
2023-01-18T05:15:56.701Z,12.50
2023-01-18T05:19:00.600Z,52.00
2023-01-18T05:22:04.597Z,38.22
2023-01-18T05:25:09.275Z,13.68
2023-01-18T05:28:13.296Z,12.98
2023-01-18T05:31:21.934Z,14.23
2023-01-18T05:34:26.071Z,12.98
2023-01-18T05:37:30.001Z,13.63
2023-01-18T05:40:34.188Z,14.73
2023-01-18T05:43:39.064Z,13.48
2023-01-18T05:49:48.196Z,19.38
2023-01-18T05:52:52.175Z,17.13
2023-01-18T05:56:01.635Z,17.27
2023-01-18T05:59:06.619Z,14.43
2023-01-18T06:02:10.609Z,13.85
2023-01-18T06:05:14.803Z,14.68
2023-01-18T06:08:19.977Z,14.52
2023-01-18T06:11:24.640Z,16.63
2023-01-18T06:14:29.025Z,14.50
2023-01-18T06:17:34.888Z,13.48
2023-01-18T06:23:42.478Z,17.27
2023-01-18T06:26:46.428Z,16.40
2023-01-18T06:29:51.051Z,10.45
2023-01-18T06:32:55.193Z,18.90
2023-01-18T06:35:59.430Z,17.33
2023-01-18T06:39:04.698Z,22.50
2023-01-18T06:42:08.797Z,16.73
2023-01-18T06:45:12.822Z,20.52
2023-01-18T06:48:16.818Z,15.32
2023-01-18T06:51:22.753Z,13.23
2023-01-18T06:54:26.855Z,12.50
2023-01-18T06:57:30.967Z,16.13
2023-01-18T07:00:35.720Z,33.70
2023-01-18T07:03:40.091Z,32.57
2023-01-18T07:06:44.202Z,49.97
2023-01-18T07:09:48.198Z,24.80
2023-01-18T07:12:52.399Z,24.45
2023-01-18T07:16:01.125Z,20.50
2023-01-18T07:19:06.094Z,16.40
2023-01-18T07:22:10.350Z,21.00
2023-01-18T07:25:14.552Z,18.27
2023-01-18T07:28:18.726Z,19.25
2023-01-18T07:31:24.552Z,13.13
2023-01-18T07:34:28.506Z,15.65
2023-01-18T07:37:34.680Z,17.42
2023-01-18T07:40:38.631Z,15.77
2023-01-18T07:43:44.500Z,17.38
2023-01-18T07:46:48.478Z,15.23
2023-01-18T07:49:54.026Z,16.13
2023-01-18T07:52:59.559Z,16.02
2023-01-18T07:56:07.292Z,20.92
2023-01-18T07:59:11.246Z,17.55
2023-01-18T08:02:15.397Z,11.77
2023-01-18T08:05:24.678Z,13.85
2023-01-18T08:08:29.748Z,16.58
2023-01-18T08:11:33.779Z,16.88
2023-01-18T08:14:38.221Z,19.33
2023-01-18T08:17:44.584Z,25.98
2023-01-18T08:20:55.303Z,25.27
2023-01-18T08:23:59.411Z,17.98
2023-01-18T08:27:03.543Z,14.00
2023-01-18T08:30:09.159Z,11.93
2023-01-18T08:33:13.955Z,16.00
2023-01-18T08:36:28.496Z,24.77
2023-01-18T08:39:32.565Z,37.63
2023-01-18T08:42:36.484Z,58.95
2023-01-18T08:45:42.124Z,68.50
2023-01-18T08:51:49.951Z,77.20
2023-01-18T08:54:53.932Z,52.22
2023-01-18T08:57:59.418Z,48.40
2023-01-18T09:01:07.571Z,30.48
2023-01-18T09:04:11.603Z,40.67
2023-01-18T09:07:16.923Z,31.65
2023-01-18T09:10:22.058Z,37.67
2023-01-18T09:13:26.157Z,41.42
2023-01-18T09:16:32.490Z,27.40
2023-01-18T09:19:37.148Z,24.20
2023-01-18T09:25:47.422Z,55.72
2023-01-18T09:28:53.323Z,18.47
2023-01-18T09:31:57.258Z,17.20
2023-01-18T09:35:01.895Z,12.53
2023-01-18T09:38:08.230Z,14.13
2023-01-18T09:41:32.925Z,13.40
2023-01-18T09:44:41.951Z,17.48
2023-01-18T09:47:48.497Z,29.33
2023-01-18T09:50:54.428Z,35.50
2023-01-18T09:54:20.169Z,43.65
2023-01-18T09:57:58.211Z,40.53
2023-01-18T10:01:19.052Z,28.20
2023-01-18T10:04:37.376Z,18.20
2023-01-18T10:08:02.968Z,17.15
2023-01-18T10:11:11.642Z,17.23
2023-01-18T10:14:34.096Z,54.70
2023-01-18T10:17:41.469Z,41.58
2023-01-18T10:21:04.569Z,28.52
2023-01-18T10:24:38.814Z,20.80
2023-01-18T10:28:09.785Z,21.60
2023-01-18T10:31:31.669Z,20.45
2023-01-18T10:34:43.429Z,19.58
2023-01-18T10:37:49.981Z,15.75
2023-01-18T10:41:02.430Z,18.52
2023-01-18T10:44:10.870Z,28.52
2023-01-18T10:47:19.269Z,17.17
2023-01-18T10:50:25.932Z,12.00
2023-01-18T10:53:38.429Z,13.07
2023-01-18T10:56:43.148Z,27.80
2023-01-18T10:59:47.465Z,77.20
2023-01-18T11:02:57.430Z,41.15
2023-01-18T11:06:07.908Z,49.70
2023-01-18T11:09:41.577Z,50.97
2023-01-18T11:12:49.288Z,21.90
2023-01-18T11:16:15.129Z,37.25
2023-01-18T11:19:20.575Z,27.55
2023-01-18T11:22:25.744Z,28.50
2023-01-18T11:25:43.319Z,23.08
2023-01-18T11:29:11.534Z,19.17
2023-01-18T11:32:26.537Z,12.27
2023-01-18T11:35:37.677Z,17.17
2023-01-18T11:38:43.369Z,15.75
2023-01-18T11:45:05.396Z,14.35
2023-01-18T11:48:37.843Z,14.60
2023-01-18T11:52:49.700Z,13.25
2023-01-18T12:02:04.962Z,14.98
2023-01-18T12:09:59.220Z,14.80
2023-01-18T12:14:44.202Z,12.90
2023-01-18T12:18:44.010Z,14.70
2023-01-18T12:23:26.647Z,11.55
2023-01-18T12:26:39.508Z,14.85
2023-01-18T12:29:59.793Z,13.25
2023-01-18T12:36:43.150Z,11.45
2023-01-18T12:40:28.875Z,8.85
2023-01-18T12:43:39.162Z,9.80
2023-01-18T12:47:03.767Z,13.15
2023-01-18T12:50:31.541Z,11.45
2023-01-18T12:53:47.276Z,11.80
2023-01-18T12:56:55.614Z,8.05
2023-01-18T13:00:16.281Z,12.55
2023-01-18T13:03:25.469Z,12.00
2023-01-18T13:06:31.372Z,7.43
2023-01-18T13:09:41.281Z,9.77
2023-01-18T13:12:46.243Z,10.68
2023-01-18T13:16:10.433Z,15.50
2023-01-18T13:19:25.016Z,9.48
2023-01-18T13:22:53.438Z,11.13
2023-01-18T13:26:15.101Z,15.10
2023-01-18T13:29:31.998Z,15.60
2023-01-18T13:32:39.068Z,15.02
2023-01-18T13:35:54.251Z,8.07
2023-01-18T13:39:05.084Z,13.07
2023-01-18T13:42:13.897Z,12.23
2023-01-18T13:45:30.250Z,11.93
2023-01-18T13:48:57.170Z,14.35
2023-01-18T13:52:01.528Z,11.35
2023-01-18T13:55:25.912Z,15.93
2023-01-18T13:58:31.621Z,10.30
2023-01-18T14:01:37.964Z,11.70
2023-01-18T14:04:42.418Z,12.50
2023-01-18T14:07:50.161Z,11.63
2023-01-18T14:11:08.657Z,10.27
2023-01-18T14:14:16.790Z,9.23
2023-01-18T14:17:22.698Z,12.15
2023-01-18T14:21:00.392Z,9.77
2023-01-18T14:24:07.770Z,13.30
2023-01-18T14:27:25.119Z,15.38
2023-01-18T14:30:34.220Z,13.10
2023-01-18T14:33:43.142Z,9.05
2023-01-18T14:36:47.576Z,11.27
2023-01-18T14:40:04.559Z,12.55
2023-01-18T14:43:35.805Z,13.30
2023-01-18T14:46:39.952Z,12.05
2023-01-18T14:49:45.518Z,9.55
2023-01-18T14:52:51.494Z,10.68
2023-01-18T14:56:11.506Z,8.55
2023-01-18T14:59:31.780Z,11.43
2023-01-18T15:02:39.741Z,10.95
2023-01-18T15:05:43.941Z,13.00
2023-01-18T15:08:52.082Z,14.63
2023-01-18T15:11:58.925Z,13.95
2023-01-18T15:15:10.820Z,12.90
2023-01-18T15:18:22.372Z,11.50
2023-01-18T15:21:31.034Z,10.85
2023-01-18T15:24:41.935Z,11.52
2023-01-18T15:27:52.765Z,10.02
2023-01-18T15:30:58.542Z,13.48
2023-01-18T15:34:03.544Z,12.35
2023-01-18T15:37:11.332Z,11.00
2023-01-18T15:40:15.630Z,10.95
2023-01-18T15:43:28.663Z,10.10
2023-01-18T15:46:40.092Z,10.48
2023-01-18T15:49:50.327Z,8.23
2023-01-18T15:53:07.061Z,10.45
2023-01-18T15:56:18.841Z,12.70
2023-01-18T15:59:26.046Z,9.00
2023-01-18T16:02:32.006Z,8.40
2023-01-18T16:05:36.613Z,8.93
2023-01-18T16:08:58.782Z,9.07
2023-01-18T16:12:05.410Z,9.98
2023-01-18T16:15:26.104Z,9.00
2023-01-18T16:18:30.487Z,8.13
2023-01-18T16:21:49.381Z,10.98
2023-01-18T16:24:58.580Z,8.80
2023-01-18T16:28:03.883Z,8.18
2023-01-18T16:31:08.280Z,8.70
2023-01-18T16:34:19.680Z,7.22
2023-01-18T16:37:24.191Z,10.65
2023-01-18T16:40:29.660Z,7.23
2023-01-18T16:43:36.678Z,7.63
2023-01-18T16:46:40.456Z,9.15
2023-01-18T16:49:45.798Z,12.15
2023-01-18T16:52:49.662Z,9.85
2023-01-18T16:55:54.331Z,10.60
2023-01-18T16:58:58.560Z,9.20
2023-01-18T17:02:02.689Z,10.15
2023-01-18T17:05:07.431Z,11.13
2023-01-18T17:08:15.848Z,9.60
2023-01-18T17:11:19.943Z,9.77
2023-01-18T17:14:23.898Z,11.10
2023-01-18T17:17:27.938Z,11.60
2023-01-18T17:20:32.669Z,9.73
2023-01-18T17:26:41.895Z,8.25
2023-01-18T17:29:46.093Z,9.23
2023-01-18T17:32:51.052Z,8.18
2023-01-18T17:35:56.295Z,10.40
2023-01-18T17:39:00.280Z,7.78
2023-01-18T17:42:04.539Z,8.68
2023-01-18T17:45:10.867Z,10.65
2023-01-18T17:48:15.254Z,12.07
2023-01-18T17:51:19.652Z,11.15
2023-01-18T17:54:23.762Z,11.00
2023-01-18T17:57:29.911Z,8.02
2023-01-18T18:00:33.984Z,11.10
2023-01-18T18:03:44.018Z,10.00
2023-01-18T18:06:54.465Z,6.90
2023-01-18T18:10:01.858Z,6.85
2023-01-18T18:13:07.000Z,10.68
2023-01-18T18:16:18.254Z,9.23
2023-01-18T18:19:22.652Z,10.52
2023-01-18T18:22:27.088Z,9.15
2023-01-18T18:25:31.125Z,7.78
2023-01-18T18:28:38.270Z,6.45
2023-01-18T18:31:42.978Z,6.90
2023-01-18T18:34:47.594Z,7.57
2023-01-18T18:37:52.726Z,6.85
2023-01-18T18:41:03.210Z,9.07
2023-01-18T18:44:07.538Z,8.48
2023-01-18T18:47:14.271Z,8.25
2023-01-18T18:50:18.657Z,8.40
2023-01-18T18:53:29.664Z,6.28
2023-01-18T18:56:42.235Z,5.03
2023-01-18T18:59:46.197Z,7.45
2023-01-18T19:02:50.271Z,6.07
2023-01-18T19:05:54.347Z,6.18
2023-01-18T19:08:59.312Z,9.00
2023-01-18T19:12:03.302Z,7.90
2023-01-18T19:15:08.016Z,6.80
2023-01-18T19:18:12.557Z,10.50
2023-01-18T19:21:16.841Z,7.10
2023-01-18T19:24:20.843Z,8.38
2023-01-18T19:27:25.447Z,8.38
2023-01-18T19:30:31.410Z,3.47
2023-01-18T19:33:39.212Z,8.30
2023-01-18T19:36:43.384Z,7.45
2023-01-18T19:39:47.934Z,9.80
2023-01-18T19:43:01.537Z,8.70
2023-01-18T19:46:08.190Z,10.57
2023-01-18T19:49:12.577Z,17.30
2023-01-18T19:52:16.679Z,10.27
2023-01-18T19:55:22.782Z,9.57
2023-01-18T19:58:27.947Z,9.38
2023-01-18T20:04:43.909Z,8.85
2023-01-18T20:07:48.804Z,9.73
2023-01-18T20:10:55.166Z,8.93
2023-01-18T20:13:59.436Z,8.65
2023-01-18T20:17:03.266Z,9.65
2023-01-18T20:20:08.379Z,10.30
2023-01-18T20:23:12.211Z,8.98
2023-01-18T20:26:27.728Z,10.40
2023-01-18T20:29:39.063Z,8.70
2023-01-18T20:32:43.545Z,10.60
2023-01-18T20:35:47.600Z,6.70
2023-01-18T20:38:52.709Z,7.50
2023-01-18T20:41:56.811Z,8.20
2023-01-18T20:45:01.591Z,6.00
2023-01-18T20:48:07.885Z,6.47
2023-01-18T20:51:12.408Z,9.13
2023-01-18T20:54:16.490Z,8.63
2023-01-18T20:57:21.499Z,7.07
2023-01-18T21:00:25.403Z,11.70
2023-01-18T21:03:29.928Z,11.77
2023-01-18T21:06:33.921Z,8.15
2023-01-18T21:09:38.384Z,8.80
2023-01-18T21:12:42.129Z,9.10
2023-01-18T21:15:47.476Z,10.53
2023-01-18T21:18:53.473Z,9.68
2023-01-18T21:21:57.999Z,8.95
2023-01-18T21:25:01.855Z,11.38
2023-01-18T21:28:06.887Z,16.20
2023-01-18T21:31:10.830Z,16.80
2023-01-18T21:34:15.477Z,10.45
2023-01-18T21:37:19.319Z,8.32
2023-01-18T21:40:24.262Z,8.23
2023-01-18T21:43:46.499Z,8.20
2023-01-18T21:46:52.699Z,9.20
2023-01-18T21:50:17.895Z,8.85
2023-01-18T21:53:41.134Z,8.60
2023-01-18T21:56:46.159Z,6.00
2023-01-18T21:59:51.247Z,8.75
2023-01-18T22:02:55.043Z,9.88
2023-01-18T22:06:02.137Z,8.83
2023-01-18T22:09:07.479Z,8.68
2023-01-18T22:12:11.841Z,9.60
2023-01-18T22:15:20.074Z,9.95
2023-01-18T22:18:24.850Z,7.88
2023-01-18T22:21:29.438Z,8.63
2023-01-18T22:24:34.032Z,8.52
2023-01-18T22:27:38.116Z,10.00
2023-01-18T22:30:42.716Z,8.57
2023-01-18T22:33:46.490Z,20.90
2023-01-18T22:36:51.621Z,10.27
2023-01-18T22:39:55.773Z,18.63
2023-01-18T22:43:00.054Z,9.60
2023-01-18T22:46:05.247Z,7.50
2023-01-18T22:49:09.589Z,9.20
2023-01-18T22:52:13.380Z,7.78
2023-01-18T22:55:17.756Z,7.77
2023-01-18T22:58:24.902Z,7.13
2023-01-18T23:01:32.266Z,8.13
2023-01-18T23:04:36.461Z,8.25
2023-01-18T23:07:41.019Z,8.43
2023-01-18T23:10:44.764Z,8.57
2023-01-18T23:14:10.103Z,8.73
2023-01-18T23:17:32.895Z,9.25
2023-01-18T23:20:37.894Z,8.15
2023-01-18T23:23:41.683Z,8.35
2023-01-18T23:26:46.361Z,8.05
2023-01-18T23:29:57.183Z,8.95
2023-01-18T23:33:01.598Z,8.55
2023-01-18T23:36:06.314Z,9.45
2023-01-18T23:42:50.656Z,7.85
2023-01-18T23:46:13.197Z,6.93
2023-01-18T23:49:35.436Z,6.15
2023-01-18T23:52:58.068Z,7.97
2023-01-18T23:56:01.948Z,7.72
2023-01-18T23:59:06.201Z,6.07
